sensor_id;sensor_type;location;lat;lon;timestamp;P1;durP1;ratioP1;P2;durP2;ratioP2
53873;SDS011;62246;50.938;4.058;2022-11-25T00:01:14;18.58;;;3.30;;
53873;SDS011;62246;50.938;4.058;2022-11-25T00:03:42;14.95;;;2.50;;
53873;SDS011;62246;50.938;4.058;2022-11-25T00:06:09;16.15;;;2.90;;
53873;SDS011;62246;50.938;4.058;2022-11-25T00:08:37;17.33;;;2.42;;
53873;SDS011;62246;50.938;4.058;2022-11-25T00:11:03;9.27;;;1.58;;
53873;SDS011;62246;50.938;4.058;2022-11-25T00:13:29;10.50;;;1.30;;
53873;SDS011;62246;50.938;4.058;2022-11-25T00:15:55;8.65;;;1.50;;
53873;SDS011;62246;50.938;4.058;2022-11-25T00:18:20;8.18;;;1.15;;
53873;SDS011;62246;50.938;4.058;2022-11-25T00:20:46;4.30;;;1.17;;
53873;SDS011;62246;50.938;4.058;2022-11-25T00:23:12;6.65;;;1.40;;
53873;SDS011;62246;50.938;4.058;2022-11-25T00:25:37;7.15;;;1.60;;
53873;SDS011;62246;50.938;4.058;2022-11-25T00:28:02;7.35;;;1.40;;
53873;SDS011;62246;50.938;4.058;2022-11-25T00:30:28;8.65;;;1.67;;
53873;SDS011;62246;50.938;4.058;2022-11-25T00:32:53;6.88;;;1.50;;
53873;SDS011;62246;50.938;4.058;2022-11-25T00:35:22;6.57;;;1.00;;
53873;SDS011;62246;50.938;4.058;2022-11-25T00:37:47;5.93;;;0.95;;
53873;SDS011;62246;50.938;4.058;2022-11-25T00:40:13;4.20;;;0.95;;
53873;SDS011;62246;50.938;4.058;2022-11-25T00:42:38;5.65;;;0.98;;
53873;SDS011;62246;50.938;4.058;2022-11-25T00:45:22;2.90;;;0.80;;
53873;SDS011;62246;50.938;4.058;2022-11-25T00:47:48;4.15;;;0.90;;
53873;SDS011;62246;50.938;4.058;2022-11-25T00:50:13;6.88;;;1.08;;
53873;SDS011;62246;50.938;4.058;2022-11-25T00:52:39;3.45;;;0.63;;
53873;SDS011;62246;50.938;4.058;2022-11-25T00:55:05;3.28;;;0.55;;
53873;SDS011;62246;50.938;4.058;2022-11-25T00:57:30;2.13;;;0.90;;
53873;SDS011;62246;50.938;4.058;2022-11-25T00:59:55;2.47;;;0.60;;
53873;SDS011;62246;50.938;4.058;2022-11-25T01:02:21;2.03;;;0.60;;
53873;SDS011;62246;50.938;4.058;2022-11-25T01:04:47;4.55;;;0.75;;
53873;SDS011;62246;50.938;4.058;2022-11-25T01:07:13;4.35;;;0.70;;
53873;SDS011;62246;50.938;4.058;2022-11-25T01:09:39;10.55;;;0.95;;
53873;SDS011;62246;50.938;4.058;2022-11-25T01:12:04;4.72;;;0.77;;
53873;SDS011;62246;50.938;4.058;2022-11-25T01:14:30;5.38;;;0.80;;
53873;SDS011;62246;50.938;4.058;2022-11-25T01:16:55;5.10;;;0.73;;
53873;SDS011;62246;50.938;4.058;2022-11-25T01:19:21;3.85;;;0.70;;
53873;SDS011;62246;50.938;4.058;2022-11-25T01:21:48;4.05;;;0.73;;
53873;SDS011;62246;50.938;4.058;2022-11-25T01:24:14;7.50;;;0.80;;
53873;SDS011;62246;50.938;4.058;2022-11-25T01:26:42;3.25;;;0.60;;
53873;SDS011;62246;50.938;4.058;2022-11-25T01:29:12;4.13;;;0.90;;
53873;SDS011;62246;50.938;4.058;2022-11-25T01:31:39;4.78;;;0.60;;
53873;SDS011;62246;50.938;4.058;2022-11-25T01:34:06;4.13;;;0.75;;
53873;SDS011;62246;50.938;4.058;2022-11-25T01:36:35;4.57;;;0.70;;
53873;SDS011;62246;50.938;4.058;2022-11-25T01:39:02;4.25;;;0.82;;
53873;SDS011;62246;50.938;4.058;2022-11-25T01:41:29;4.40;;;0.85;;
53873;SDS011;62246;50.938;4.058;2022-11-25T01:44:09;2.72;;;0.50;;
53873;SDS011;62246;50.938;4.058;2022-11-25T01:54:53;3.53;;;0.93;;
53873;SDS011;62246;50.938;4.058;2022-11-25T01:57:25;4.30;;;0.70;;
53873;SDS011;62246;50.938;4.058;2022-11-25T01:59:56;8.07;;;1.25;;
53873;SDS011;62246;50.938;4.058;2022-11-25T02:02:26;4.05;;;0.90;;
53873;SDS011;62246;50.938;4.058;2022-11-25T02:04:52;3.35;;;0.77;;
53873;SDS011;62246;50.938;4.058;2022-11-25T02:07:40;5.38;;;1.10;;
53873;SDS011;62246;50.938;4.058;2022-11-25T02:10:09;2.30;;;0.85;;
53873;SDS011;62246;50.938;4.058;2022-11-25T02:12:39;5.83;;;0.90;;
53873;SDS011;62246;50.938;4.058;2022-11-25T02:15:06;6.82;;;1.23;;
53873;SDS011;62246;50.938;4.058;2022-11-25T02:17:32;4.32;;;1.08;;
53873;SDS011;62246;50.938;4.058;2022-11-25T02:19:59;4.63;;;1.00;;
53873;SDS011;62246;50.938;4.058;2022-11-25T02:25:21;4.13;;;0.90;;
53873;SDS011;62246;50.938;4.058;2022-11-25T02:27:50;3.83;;;1.08;;
53873;SDS011;62246;50.938;4.058;2022-11-25T02:30:21;5.50;;;1.08;;
53873;SDS011;62246;50.938;4.058;2022-11-25T02:32:47;5.00;;;0.93;;
53873;SDS011;62246;50.938;4.058;2022-11-25T02:35:21;4.35;;;1.17;;
53873;SDS011;62246;50.938;4.058;2022-11-25T02:38:00;5.03;;;1.02;;
53873;SDS011;62246;50.938;4.058;2022-11-25T02:40:29;4.93;;;0.95;;
53873;SDS011;62246;50.938;4.058;2022-11-25T02:42:57;5.60;;;1.00;;
53873;SDS011;62246;50.938;4.058;2022-11-25T02:45:40;4.95;;;1.30;;
53873;SDS011;62246;50.938;4.058;2022-11-25T02:48:11;4.15;;;0.90;;
53873;SDS011;62246;50.938;4.058;2022-11-25T02:50:37;5.57;;;1.35;;
53873;SDS011;62246;50.938;4.058;2022-11-25T02:53:02;7.13;;;1.17;;
53873;SDS011;62246;50.938;4.058;2022-11-25T02:55:29;3.03;;;0.90;;
53873;SDS011;62246;50.938;4.058;2022-11-25T02:57:54;11.68;;;1.63;;
53873;SDS011;62246;50.938;4.058;2022-11-25T03:00:19;5.90;;;1.25;;
53873;SDS011;62246;50.938;4.058;2022-11-25T03:02:45;6.50;;;1.35;;
53873;SDS011;62246;50.938;4.058;2022-11-25T03:05:12;6.75;;;1.52;;
53873;SDS011;62246;50.938;4.058;2022-11-25T03:07:37;5.43;;;0.98;;
53873;SDS011;62246;50.938;4.058;2022-11-25T03:10:03;11.70;;;1.58;;
53873;SDS011;62246;50.938;4.058;2022-11-25T03:12:29;5.38;;;1.25;;
53873;SDS011;62246;50.938;4.058;2022-11-25T03:14:55;11.75;;;1.70;;
53873;SDS011;62246;50.938;4.058;2022-11-25T03:17:21;7.93;;;1.77;;
53873;SDS011;62246;50.938;4.058;2022-11-25T03:19:47;8.48;;;1.55;;
53873;SDS011;62246;50.938;4.058;2022-11-25T03:22:12;6.05;;;1.80;;
53873;SDS011;62246;50.938;4.058;2022-11-25T03:24:38;5.07;;;1.67;;
53873;SDS011;62246;50.938;4.058;2022-11-25T03:27:03;8.70;;;1.70;;
53873;SDS011;62246;50.938;4.058;2022-11-25T03:29:29;8.40;;;1.52;;
53873;SDS011;62246;50.938;4.058;2022-11-25T03:31:54;8.32;;;2.15;;
53873;SDS011;62246;50.938;4.058;2022-11-25T03:34:20;13.25;;;1.80;;
53873;SDS011;62246;50.938;4.058;2022-11-25T03:36:45;6.72;;;1.90;;
53873;SDS011;62246;50.938;4.058;2022-11-25T03:39:11;15.60;;;2.58;;
53873;SDS011;62246;50.938;4.058;2022-11-25T03:41:36;13.32;;;2.20;;
53873;SDS011;62246;50.938;4.058;2022-11-25T03:44:02;6.95;;;1.83;;
53873;SDS011;62246;50.938;4.058;2022-11-25T03:46:27;13.65;;;2.00;;
53873;SDS011;62246;50.938;4.058;2022-11-25T03:48:53;11.85;;;2.10;;
53873;SDS011;62246;50.938;4.058;2022-11-25T03:51:18;10.93;;;2.30;;
53873;SDS011;62246;50.938;4.058;2022-11-25T03:53:44;7.30;;;1.67;;
53873;SDS011;62246;50.938;4.058;2022-11-25T03:56:09;12.85;;;2.55;;
53873;SDS011;62246;50.938;4.058;2022-11-25T03:58:34;12.60;;;2.83;;
53873;SDS011;62246;50.938;4.058;2022-11-25T04:01:00;9.70;;;2.03;;
53873;SDS011;62246;50.938;4.058;2022-11-25T04:03:26;10.23;;;2.47;;
53873;SDS011;62246;50.938;4.058;2022-11-25T04:05:52;11.43;;;2.22;;
53873;SDS011;62246;50.938;4.058;2022-11-25T04:08:18;16.20;;;2.25;;
53873;SDS011;62246;50.938;4.058;2022-11-25T04:10:43;13.95;;;2.78;;
53873;SDS011;62246;50.938;4.058;2022-11-25T04:13:09;12.20;;;2.70;;
53873;SDS011;62246;50.938;4.058;2022-11-25T04:15:35;12.82;;;2.60;;
53873;SDS011;62246;50.938;4.058;2022-11-25T04:18:00;13.65;;;2.67;;
53873;SDS011;62246;50.938;4.058;2022-11-25T04:20:26;13.50;;;2.33;;
53873;SDS011;62246;50.938;4.058;2022-11-25T04:22:51;11.90;;;2.92;;
53873;SDS011;62246;50.938;4.058;2022-11-25T04:25:17;15.27;;;2.90;;
53873;SDS011;62246;50.938;4.058;2022-11-25T04:27:42;10.80;;;2.78;;
53873;SDS011;62246;50.938;4.058;2022-11-25T04:30:09;12.30;;;2.85;;
53873;SDS011;62246;50.938;4.058;2022-11-25T04:32:36;13.02;;;2.88;;
53873;SDS011;62246;50.938;4.058;2022-11-25T04:35:02;11.20;;;2.40;;
53873;SDS011;62246;50.938;4.058;2022-11-25T04:37:28;12.00;;;2.97;;
53873;SDS011;62246;50.938;4.058;2022-11-25T04:39:54;14.07;;;3.00;;
53873;SDS011;62246;50.938;4.058;2022-11-25T04:42:19;16.45;;;2.70;;
53873;SDS011;62246;50.938;4.058;2022-11-25T04:44:58;15.07;;;2.53;;
53873;SDS011;62246;50.938;4.058;2022-11-25T04:47:25;12.45;;;2.92;;
53873;SDS011;62246;50.938;4.058;2022-11-25T04:49:52;16.50;;;2.72;;
53873;SDS011;62246;50.938;4.058;2022-11-25T04:52:17;15.07;;;2.55;;
53873;SDS011;62246;50.938;4.058;2022-11-25T04:54:43;13.15;;;2.70;;
53873;SDS011;62246;50.938;4.058;2022-11-25T04:57:11;14.85;;;3.10;;
53873;SDS011;62246;50.938;4.058;2022-11-25T04:59:37;14.63;;;3.15;;
53873;SDS011;62246;50.938;4.058;2022-11-25T05:02:03;15.52;;;2.72;;
53873;SDS011;62246;50.938;4.058;2022-11-25T05:04:29;13.52;;;2.28;;
53873;SDS011;62246;50.938;4.058;2022-11-25T05:06:55;14.70;;;3.30;;
53873;SDS011;62246;50.938;4.058;2022-11-25T05:09:20;14.18;;;2.95;;
53873;SDS011;62246;50.938;4.058;2022-11-25T05:11:46;11.35;;;2.88;;
53873;SDS011;62246;50.938;4.058;2022-11-25T05:14:12;12.05;;;2.22;;
53873;SDS011;62246;50.938;4.058;2022-11-25T05:16:37;13.27;;;2.67;;
53873;SDS011;62246;50.938;4.058;2022-11-25T05:19:02;10.18;;;2.47;;
53873;SDS011;62246;50.938;4.058;2022-11-25T05:21:28;14.32;;;2.53;;
53873;SDS011;62246;50.938;4.058;2022-11-25T05:23:53;13.23;;;2.50;;
53873;SDS011;62246;50.938;4.058;2022-11-25T05:26:19;12.30;;;2.33;;
53873;SDS011;62246;50.938;4.058;2022-11-25T05:28:45;12.70;;;2.58;;
53873;SDS011;62246;50.938;4.058;2022-11-25T05:31:10;10.05;;;2.50;;
53873;SDS011;62246;50.938;4.058;2022-11-25T05:33:36;7.63;;;2.35;;
53873;SDS011;62246;50.938;4.058;2022-11-25T05:36:02;9.93;;;2.22;;
53873;SDS011;62246;50.938;4.058;2022-11-25T05:38:28;12.15;;;2.35;;
53873;SDS011;62246;50.938;4.058;2022-11-25T05:41:04;12.90;;;2.40;;
53873;SDS011;62246;50.938;4.058;2022-11-25T05:43:31;9.45;;;2.63;;
53873;SDS011;62246;50.938;4.058;2022-11-25T05:45:57;8.82;;;2.28;;
53873;SDS011;62246;50.938;4.058;2022-11-25T05:48:22;13.35;;;2.80;;
53873;SDS011;62246;50.938;4.058;2022-11-25T05:50:48;13.10;;;2.53;;
53873;SDS011;62246;50.938;4.058;2022-11-25T05:53:13;10.60;;;2.67;;
53873;SDS011;62246;50.938;4.058;2022-11-25T05:55:48;8.82;;;2.58;;
53873;SDS011;62246;50.938;4.058;2022-11-25T05:58:18;12.27;;;2.20;;
53873;SDS011;62246;50.938;4.058;2022-11-25T06:00:43;13.13;;;2.33;;
53873;SDS011;62246;50.938;4.058;2022-11-25T06:03:09;9.40;;;2.40;;
53873;SDS011;62246;50.938;4.058;2022-11-25T06:05:34;15.68;;;2.47;;
53873;SDS011;62246;50.938;4.058;2022-11-25T06:08:00;10.45;;;2.50;;
53873;SDS011;62246;50.938;4.058;2022-11-25T06:10:25;11.52;;;3.20;;
53873;SDS011;62246;50.938;4.058;2022-11-25T06:12:51;10.15;;;2.63;;
53873;SDS011;62246;50.938;4.058;2022-11-25T06:15:17;14.95;;;2.58;;
53873;SDS011;62246;50.938;4.058;2022-11-25T06:17:43;15.68;;;2.78;;
53873;SDS011;62246;50.938;4.058;2022-11-25T06:20:08;11.27;;;2.70;;
53873;SDS011;62246;50.938;4.058;2022-11-25T06:22:34;13.50;;;2.65;;
53873;SDS011;62246;50.938;4.058;2022-11-25T06:24:59;15.35;;;2.47;;
53873;SDS011;62246;50.938;4.058;2022-11-25T06:27:24;11.55;;;2.53;;
53873;SDS011;62246;50.938;4.058;2022-11-25T06:29:50;13.82;;;3.00;;
53873;SDS011;62246;50.938;4.058;2022-11-25T06:32:18;13.00;;;2.70;;
53873;SDS011;62246;50.938;4.058;2022-11-25T06:34:44;10.93;;;2.92;;
53873;SDS011;62246;50.938;4.058;2022-11-25T06:37:09;13.93;;;2.70;;
53873;SDS011;62246;50.938;4.058;2022-11-25T06:39:35;9.52;;;3.00;;
53873;SDS011;62246;50.938;4.058;2022-11-25T06:42:00;16.73;;;2.88;;
53873;SDS011;62246;50.938;4.058;2022-11-25T06:44:26;17.58;;;3.60;;
53873;SDS011;62246;50.938;4.058;2022-11-25T06:46:51;14.55;;;3.10;;
53873;SDS011;62246;50.938;4.058;2022-11-25T06:49:17;13.07;;;3.13;;
53873;SDS011;62246;50.938;4.058;2022-11-25T06:51:42;15.65;;;3.05;;
53873;SDS011;62246;50.938;4.058;2022-11-25T06:54:08;13.23;;;2.78;;
53873;SDS011;62246;50.938;4.058;2022-11-25T06:56:34;14.15;;;3.30;;
53873;SDS011;62246;50.938;4.058;2022-11-25T06:59:00;10.48;;;3.10;;
53873;SDS011;62246;50.938;4.058;2022-11-25T07:01:26;10.50;;;3.10;;
53873;SDS011;62246;50.938;4.058;2022-11-25T07:03:54;16.08;;;3.70;;
53873;SDS011;62246;50.938;4.058;2022-11-25T07:06:25;12.05;;;3.75;;
53873;SDS011;62246;50.938;4.058;2022-11-25T07:08:50;19.13;;;3.88;;
53873;SDS011;62246;50.938;4.058;2022-11-25T07:11:23;12.38;;;3.83;;
53873;SDS011;62246;50.938;4.058;2022-11-25T07:14:00;12.30;;;3.40;;
53873;SDS011;62246;50.938;4.058;2022-11-25T07:16:31;16.90;;;3.90;;
53873;SDS011;62246;50.938;4.058;2022-11-25T07:18:58;17.88;;;3.95;;
53873;SDS011;62246;50.938;4.058;2022-11-25T07:21:26;13.68;;;3.67;;
53873;SDS011;62246;50.938;4.058;2022-11-25T07:23:53;19.65;;;3.90;;
53873;SDS011;62246;50.938;4.058;2022-11-25T07:26:20;13.30;;;3.95;;
53873;SDS011;62246;50.938;4.058;2022-11-25T07:28:47;19.65;;;3.95;;
53873;SDS011;62246;50.938;4.058;2022-11-25T07:31:21;17.55;;;3.92;;
53873;SDS011;62246;50.938;4.058;2022-11-25T07:33:55;17.20;;;3.95;;
53873;SDS011;62246;50.938;4.058;2022-11-25T07:36:22;14.52;;;3.67;;
53873;SDS011;62246;50.938;4.058;2022-11-25T07:38:48;20.02;;;4.30;;
53873;SDS011;62246;50.938;4.058;2022-11-25T07:41:15;18.50;;;3.97;;
53873;SDS011;62246;50.938;4.058;2022-11-25T07:43:55;14.18;;;3.30;;
53873;SDS011;62246;50.938;4.058;2022-11-25T07:46:27;16.55;;;3.65;;
53873;SDS011;62246;50.938;4.058;2022-11-25T07:48:59;15.73;;;3.30;;
53873;SDS011;62246;50.938;4.058;2022-11-25T07:51:31;13.00;;;3.22;;
53873;SDS011;62246;50.938;4.058;2022-11-25T07:54:20;16.10;;;3.75;;
53873;SDS011;62246;50.938;4.058;2022-11-25T07:56:46;17.52;;;3.30;;
53873;SDS011;62246;50.938;4.058;2022-11-25T07:59:14;15.85;;;3.13;;
53873;SDS011;62246;50.938;4.058;2022-11-25T08:01:45;7.60;;;1.95;;
53873;SDS011;62246;50.938;4.058;2022-11-25T08:04:13;14.48;;;3.58;;
53873;SDS011;62246;50.938;4.058;2022-11-25T08:06:39;19.60;;;3.67;;
53873;SDS011;62246;50.938;4.058;2022-11-25T08:09:09;13.57;;;3.30;;
53873;SDS011;62246;50.938;4.058;2022-11-25T08:11:36;16.48;;;4.03;;
53873;SDS011;62246;50.938;4.058;2022-11-25T08:14:02;16.45;;;3.92;;
53873;SDS011;62246;50.938;4.058;2022-11-25T08:16:28;13.98;;;3.38;;
53873;SDS011;62246;50.938;4.058;2022-11-25T08:19:01;14.60;;;4.03;;
53873;SDS011;62246;50.938;4.058;2022-11-25T08:21:28;9.55;;;2.78;;
53873;SDS011;62246;50.938;4.058;2022-11-25T08:23:54;17.83;;;4.15;;
53873;SDS011;62246;50.938;4.058;2022-11-25T08:26:21;16.58;;;3.92;;
53873;SDS011;62246;50.938;4.058;2022-11-25T08:28:50;12.70;;;3.92;;
53873;SDS011;62246;50.938;4.058;2022-11-25T08:31:17;13.70;;;3.28;;
53873;SDS011;62246;50.938;4.058;2022-11-25T08:33:44;15.88;;;3.97;;
53873;SDS011;62246;50.938;4.058;2022-11-25T08:36:11;11.52;;;3.40;;
53873;SDS011;62246;50.938;4.058;2022-11-25T08:38:36;28.13;;;4.65;;
53873;SDS011;62246;50.938;4.058;2022-11-25T08:41:02;14.02;;;3.47;;
53873;SDS011;62246;50.938;4.058;2022-11-25T08:43:32;12.05;;;3.63;;
53873;SDS011;62246;50.938;4.058;2022-11-25T08:45:58;11.82;;;3.40;;
53873;SDS011;62246;50.938;4.058;2022-11-25T08:48:23;11.32;;;2.78;;
53873;SDS011;62246;50.938;4.058;2022-11-25T08:50:50;19.80;;;3.97;;
53873;SDS011;62246;50.938;4.058;2022-11-25T08:53:17;18.58;;;4.10;;
53873;SDS011;62246;50.938;4.058;2022-11-25T08:55:43;14.32;;;3.42;;
53873;SDS011;62246;50.938;4.058;2022-11-25T08:58:09;15.60;;;3.50;;
53873;SDS011;62246;50.938;4.058;2022-11-25T09:00:37;18.70;;;3.80;;
53873;SDS011;62246;50.938;4.058;2022-11-25T09:03:04;14.00;;;3.30;;
53873;SDS011;62246;50.938;4.058;2022-11-25T09:05:30;14.82;;;3.70;;
53873;SDS011;62246;50.938;4.058;2022-11-25T09:08:00;16.45;;;3.50;;
53873;SDS011;62246;50.938;4.058;2022-11-25T09:10:27;14.68;;;3.38;;
53873;SDS011;62246;50.938;4.058;2022-11-25T09:12:52;14.15;;;3.60;;
53873;SDS011;62246;50.938;4.058;2022-11-25T09:15:18;14.10;;;3.45;;
53873;SDS011;62246;50.938;4.058;2022-11-25T09:17:43;15.90;;;3.85;;
53873;SDS011;62246;50.938;4.058;2022-11-25T09:20:09;17.52;;;4.10;;
53873;SDS011;62246;50.938;4.058;2022-11-25T09:22:35;16.40;;;3.70;;
53873;SDS011;62246;50.938;4.058;2022-11-25T09:25:00;15.02;;;3.35;;
53873;SDS011;62246;50.938;4.058;2022-11-25T09:27:26;15.88;;;3.55;;
53873;SDS011;62246;50.938;4.058;2022-11-25T09:29:51;15.50;;;3.15;;
53873;SDS011;62246;50.938;4.058;2022-11-25T09:32:17;12.10;;;2.72;;
53873;SDS011;62246;50.938;4.058;2022-11-25T09:34:42;14.40;;;3.30;;
53873;SDS011;62246;50.938;4.058;2022-11-25T09:37:08;12.38;;;3.50;;
53873;SDS011;62246;50.938;4.058;2022-11-25T09:39:35;13.40;;;3.50;;
53873;SDS011;62246;50.938;4.058;2022-11-25T09:45:15;13.73;;;4.00;;
53873;SDS011;62246;50.938;4.058;2022-11-25T09:48:04;17.33;;;3.72;;
53873;SDS011;62246;50.938;4.058;2022-11-25T09:51:35;15.48;;;3.53;;
53873;SDS011;62246;50.938;4.058;2022-11-25T09:56:45;18.88;;;3.58;;
53873;SDS011;62246;50.938;4.058;2022-11-25T09:59:18;12.70;;;3.20;;
53873;SDS011;62246;50.938;4.058;2022-11-25T10:02:34;11.13;;;2.95;;
53873;SDS011;62246;50.938;4.058;2022-11-25T10:05:00;11.80;;;3.40;;
53873;SDS011;62246;50.938;4.058;2022-11-25T10:07:38;17.08;;;3.90;;
53873;SDS011;62246;50.938;4.058;2022-11-25T10:10:17;11.82;;;3.58;;
53873;SDS011;62246;50.938;4.058;2022-11-25T10:12:48;17.05;;;4.05;;
53873;SDS011;62246;50.938;4.058;2022-11-25T10:15:20;14.32;;;3.65;;
53873;SDS011;62246;50.938;4.058;2022-11-25T10:17:51;16.90;;;3.60;;
53873;SDS011;62246;50.938;4.058;2022-11-25T10:20:27;15.80;;;4.00;;
53873;SDS011;62246;50.938;4.058;2022-11-25T10:23:07;13.85;;;4.38;;
53873;SDS011;62246;50.938;4.058;2022-11-25T10:25:36;14.95;;;3.28;;
53873;SDS011;62246;50.938;4.058;2022-11-25T10:28:14;18.15;;;4.70;;
53873;SDS011;62246;50.938;4.058;2022-11-25T10:34:11;16.38;;;4.30;;
53873;SDS011;62246;50.938;4.058;2022-11-25T10:36:19;15.25;;;3.75;;
53873;SDS011;62246;50.938;4.058;2022-11-25T10:41:25;16.52;;;4.30;;
53873;SDS011;62246;50.938;4.058;2022-11-25T10:43:54;14.48;;;3.65;;
53873;SDS011;62246;50.938;4.058;2022-11-25T10:49:12;13.43;;;3.10;;
53873;SDS011;62246;50.938;4.058;2022-11-25T10:51:46;14.40;;;3.00;;
53873;SDS011;62246;50.938;4.058;2022-11-25T10:54:14;14.65;;;2.53;;
53873;SDS011;62246;50.938;4.058;2022-11-25T10:56:51;14.90;;;3.08;;
53873;SDS011;62246;50.938;4.058;2022-11-25T10:59:31;9.40;;;2.78;;
53873;SDS011;62246;50.938;4.058;2022-11-25T11:02:17;13.43;;;3.22;;
53873;SDS011;62246;50.938;4.058;2022-11-25T11:07:23;14.65;;;3.00;;
53873;SDS011;62246;50.938;4.058;2022-11-25T11:09:54;9.05;;;3.05;;
53873;SDS011;62246;50.938;4.058;2022-11-25T11:12:36;15.23;;;2.83;;
53873;SDS011;62246;50.938;4.058;2022-11-25T11:15:14;8.60;;;2.17;;
53873;SDS011;62246;50.938;4.058;2022-11-25T11:17:43;12.63;;;3.05;;
53873;SDS011;62246;50.938;4.058;2022-11-25T11:20:22;13.32;;;2.83;;
53873;SDS011;62246;50.938;4.058;2022-11-25T11:25:38;12.20;;;2.70;;
53873;SDS011;62246;50.938;4.058;2022-11-25T11:28:24;11.00;;;3.17;;
53873;SDS011;62246;50.938;4.058;2022-11-25T11:31:19;11.15;;;3.05;;
53873;SDS011;62246;50.938;4.058;2022-11-25T11:50:31;11.85;;;3.10;;
53873;SDS011;62246;50.938;4.058;2022-11-25T12:00:48;12.10;;;3.10;;
53873;SDS011;62246;50.938;4.058;2022-11-25T12:03:23;12.38;;;2.88;;
53873;SDS011;62246;50.938;4.058;2022-11-25T12:05:51;11.27;;;2.78;;
53873;SDS011;62246;50.938;4.058;2022-11-25T12:11:02;11.30;;;2.67;;
53873;SDS011;62246;50.938;4.058;2022-11-25T12:16:26;8.95;;;2.53;;
53873;SDS011;62246;50.938;4.058;2022-11-25T12:21:41;12.77;;;2.63;;
53873;SDS011;62246;50.938;4.058;2022-11-25T12:27:01;9.07;;;2.50;;
53873;SDS011;62246;50.938;4.058;2022-11-25T12:29:35;12.68;;;2.95;;
53873;SDS011;62246;50.938;4.058;2022-11-25T12:42:49;10.17;;;2.93;;
53873;SDS011;62246;50.938;4.058;2022-11-25T12:45:20;11.20;;;2.55;;
53873;SDS011;62246;50.938;4.058;2022-11-25T12:47:48;12.35;;;2.58;;
53873;SDS011;62246;50.938;4.058;2022-11-25T12:50:16;16.92;;;3.00;;
53873;SDS011;62246;50.938;4.058;2022-11-25T12:53:01;12.20;;;2.70;;
53873;SDS011;62246;50.938;4.058;2022-11-25T12:55:37;12.00;;;2.63;;
53873;SDS011;62246;50.938;4.058;2022-11-25T12:58:17;11.90;;;2.65;;
53873;SDS011;62246;50.938;4.058;2022-11-25T13:01:07;13.25;;;2.95;;
53873;SDS011;62246;50.938;4.058;2022-11-25T13:03:54;14.90;;;3.03;;
53873;SDS011;62246;50.938;4.058;2022-11-25T13:10:09;16.92;;;3.00;;
53873;SDS011;62246;50.938;4.058;2022-11-25T13:17:25;11.38;;;2.83;;
53873;SDS011;62246;50.938;4.058;2022-11-25T13:26:32;13.77;;;3.38;;
53873;SDS011;62246;50.938;4.058;2022-11-25T13:29:00;13.57;;;3.25;;
53873;SDS011;62246;50.938;4.058;2022-11-25T13:31:31;15.55;;;2.97;;
53873;SDS011;62246;50.938;4.058;2022-11-25T13:34:05;17.77;;;3.47;;
53873;SDS011;62246;50.938;4.058;2022-11-25T13:36:49;12.82;;;3.30;;
53873;SDS011;62246;50.938;4.058;2022-11-25T13:39:17;16.05;;;3.10;;
53873;SDS011;62246;50.938;4.058;2022-11-25T13:44:52;11.68;;;2.88;;
53873;SDS011;62246;50.938;4.058;2022-11-25T13:52:45;14.90;;;3.00;;
53873;SDS011;62246;50.938;4.058;2022-11-25T13:57:45;16.00;;;3.00;;
53873;SDS011;62246;50.938;4.058;2022-11-25T14:02:45;16.40;;;3.75;;
53873;SDS011;62246;50.938;4.058;2022-11-25T14:08:29;14.95;;;3.70;;
53873;SDS011;62246;50.938;4.058;2022-11-25T14:16:13;14.15;;;3.15;;
53873;SDS011;62246;50.938;4.058;2022-11-25T14:21:40;17.45;;;3.42;;
53873;SDS011;62246;50.938;4.058;2022-11-25T14:27:00;14.20;;;3.38;;
53873;SDS011;62246;50.938;4.058;2022-11-25T14:31:58;18.50;;;3.30;;
53873;SDS011;62246;50.938;4.058;2022-11-25T14:34:26;20.92;;;3.72;;
53873;SDS011;62246;50.938;4.058;2022-11-25T14:40:07;19.17;;;3.60;;
53873;SDS011;62246;50.938;4.058;2022-11-25T14:42:39;20.83;;;4.05;;
53873;SDS011;62246;50.938;4.058;2022-11-25T14:45:27;18.30;;;4.10;;
53873;SDS011;62246;50.938;4.058;2022-11-25T14:47:54;16.50;;;3.72;;
53873;SDS011;62246;50.938;4.058;2022-11-25T14:50:20;13.50;;;3.65;;
53873;SDS011;62246;50.938;4.058;2022-11-25T14:52:46;13.27;;;3.50;;
53873;SDS011;62246;50.938;4.058;2022-11-25T14:55:22;15.38;;;3.60;;
53873;SDS011;62246;50.938;4.058;2022-11-25T14:57:52;16.10;;;3.78;;
53873;SDS011;62246;50.938;4.058;2022-11-25T15:00:18;18.75;;;4.53;;
53873;SDS011;62246;50.938;4.058;2022-11-25T15:03:03;15.40;;;3.75;;
53873;SDS011;62246;50.938;4.058;2022-11-25T15:05:33;16.05;;;3.88;;
53873;SDS011;62246;50.938;4.058;2022-11-25T15:08:02;20.15;;;4.03;;
53873;SDS011;62246;50.938;4.058;2022-11-25T15:10:38;16.85;;;3.85;;
53873;SDS011;62246;50.938;4.058;2022-11-25T15:15:52;22.70;;;4.10;;
53873;SDS011;62246;50.938;4.058;2022-11-25T15:18:20;17.52;;;3.78;;
53873;SDS011;62246;50.938;4.058;2022-11-25T15:20:49;20.55;;;3.95;;
53873;SDS011;62246;50.938;4.058;2022-11-25T15:23:29;21.95;;;3.92;;
53873;SDS011;62246;50.938;4.058;2022-11-25T15:25:59;17.58;;;4.50;;
53873;SDS011;62246;50.938;4.058;2022-11-25T15:28:26;15.02;;;4.05;;
53873;SDS011;62246;50.938;4.058;2022-11-25T15:31:01;18.60;;;4.30;;
53873;SDS011;62246;50.938;4.058;2022-11-25T15:33:32;18.05;;;4.25;;
53873;SDS011;62246;50.938;4.058;2022-11-25T15:35:57;21.42;;;4.57;;
53873;SDS011;62246;50.938;4.058;2022-11-25T15:38:37;16.90;;;4.03;;
53873;SDS011;62246;50.938;4.058;2022-11-25T15:41:03;23.58;;;4.55;;
53873;SDS011;62246;50.938;4.058;2022-11-25T15:43:30;23.50;;;4.05;;
53873;SDS011;62246;50.938;4.058;2022-11-25T15:46:01;17.50;;;4.28;;
53873;SDS011;62246;50.938;4.058;2022-11-25T15:51:03;24.10;;;4.45;;
53873;SDS011;62246;50.938;4.058;2022-11-25T15:53:31;21.90;;;3.70;;
53873;SDS011;62246;50.938;4.058;2022-11-25T15:56:01;19.80;;;4.10;;
53873;SDS011;62246;50.938;4.058;2022-11-25T15:58:29;23.63;;;4.05;;
53873;SDS011;62246;50.938;4.058;2022-11-25T16:01:04;19.10;;;4.00;;
53873;SDS011;62246;50.938;4.058;2022-11-25T16:03:32;23.98;;;4.90;;
53873;SDS011;62246;50.938;4.058;2022-11-25T16:05:59;19.38;;;4.22;;
53873;SDS011;62246;50.938;4.058;2022-11-25T16:08:35;18.38;;;4.25;;
53873;SDS011;62246;50.938;4.058;2022-11-25T16:11:12;20.23;;;4.82;;
53873;SDS011;62246;50.938;4.058;2022-11-25T16:13:41;25.25;;;5.00;;
53873;SDS011;62246;50.938;4.058;2022-11-25T16:23:59;20.63;;;4.78;;
53873;SDS011;62246;50.938;4.058;2022-11-25T16:29:50;17.05;;;4.03;;
53873;SDS011;62246;50.938;4.058;2022-11-25T16:32:20;21.05;;;4.80;;
53873;SDS011;62246;50.938;4.058;2022-11-25T16:34:50;18.02;;;4.60;;
53873;SDS011;62246;50.938;4.058;2022-11-25T16:37:16;22.45;;;4.20;;
53873;SDS011;62246;50.938;4.058;2022-11-25T16:39:42;22.80;;;4.95;;
53873;SDS011;62246;50.938;4.058;2022-11-25T16:42:11;20.08;;;4.55;;
53873;SDS011;62246;50.938;4.058;2022-11-25T16:44:42;21.17;;;4.78;;
53873;SDS011;62246;50.938;4.058;2022-11-25T16:47:12;24.40;;;5.78;;
53873;SDS011;62246;50.938;4.058;2022-11-25T16:49:37;17.80;;;4.70;;
53873;SDS011;62246;50.938;4.058;2022-11-25T16:52:03;20.02;;;4.93;;
53873;SDS011;62246;50.938;4.058;2022-11-25T16:54:28;21.83;;;4.88;;
53873;SDS011;62246;50.938;4.058;2022-11-25T16:56:55;22.35;;;5.10;;
53873;SDS011;62246;50.938;4.058;2022-11-25T16:59:29;16.90;;;4.55;;
53873;SDS011;62246;50.938;4.058;2022-11-25T17:01:59;16.05;;;4.55;;
53873;SDS011;62246;50.938;4.058;2022-11-25T17:04:25;16.42;;;4.65;;
53873;SDS011;62246;50.938;4.058;2022-11-25T17:06:51;21.98;;;5.72;;
53873;SDS011;62246;50.938;4.058;2022-11-25T17:09:19;18.77;;;4.75;;
53873;SDS011;62246;50.938;4.058;2022-11-25T17:11:45;19.05;;;5.13;;